Dumas, TX

2:27 PM CST on December 10, 2016 (GMT -0600)
Moore County

Weather History for KDUX - November, 2012

Change the Weather History Date:

Thursday, November 1, 2012

  Actual Average (KDHT) Record (KDHT)
Temperature  
Mean Temperature 58 °F -  
Max Temperature 78 °F 61 °F 83 °F (1944)
Min Temperature 37 °F 33 °F 18 °F (1951)
Degree Days  
Heating Degree Days 8    
Growing Degree Days 8 (Base 50)    
Moisture  
Dew Point 27 °F    
Average Humidity 34    
Maximum Humidity 65    
Minimum Humidity 15    
Precipitation  
Precipitation 0.00 in - - ()
Sea Level Pressure  
Sea Level Pressure 30.03 in    
Wind  
Wind Speed 7 mph (SW)    
Max Wind Speed 16 mph    
Max Gust Speed 20 mph    
Visibility 10 miles    
Events      
Averages and records for this station are not official NWS values.
T = Trace of Precipitation, MM = Missing Value Source: NWS Daily Summary

Daily Weather History Graph

Daily Weather History Graph

Search for Another Location

Airport or City:

Trip Planner

Search our weather history database for the weather conditions in past years. The results will help you decide how hot, cold, wet, or windy it might be!

Date:

Astronomy

Nov. 01, 2012 Rise Set
Actual Time 8:10 AM CDT 6:51 PM CDT
Civil Twilight 7:44 AM CDT 7:18 PM CDT
Nautical Twilight 7:14 AM CDT 7:48 PM CDT
Astronomical Twilight 6:44 AM CDT 8:18 PM CDT
Moon 8:54 PM CDT (11/1) 10:41 AM CDT (11/1)
Length of Visible Light 11h 34m
Length of Day
10h 41m
Waning Gibbous, 93% of the Moon is Illuminated
Nov 1
Waning Gibbous
Nov 6
Last Quarter
Nov 13
New
Nov 20
First Quarter
Nov 28
Full

Hourly Weather History & Observations

Time (CDT) Temp. Windchill Dew Point Humidity Pressure Visibility Wind Dir Wind Speed Gust Speed Precip Events Conditions
12:15 AM 51.8 °F - 28.4 °F 41% 30.11 in 10.0 mi NNW 5.8 mph - N/A   Clear
12:35 AM 50.0 °F - 28.4 °F 43% 30.11 in 10.0 mi NW 5.8 mph - N/A   Clear
12:55 AM 50.0 °F - 26.6 °F 40% 30.11 in 10.0 mi NW 3.5 mph - N/A   Clear
1:15 AM 51.8 °F - 26.6 °F 38% 30.10 in 10.0 mi Calm Calm - N/A   Clear
1:35 AM 51.8 °F - 26.6 °F 38% 30.10 in 10.0 mi Calm Calm - N/A   Clear
1:55 AM 50.0 °F - 28.4 °F 43% 30.09 in 10.0 mi Calm Calm - N/A   Clear
2:15 AM 53.6 °F - 28.4 °F 38% 30.09 in 10.0 mi Calm Calm - N/A   Clear
2:35 AM 51.8 °F - 26.6 °F 38% 30.09 in 10.0 mi SSE 4.6 mph - N/A   Clear
3:15 AM 46.4 °F 45.2 °F 26.6 °F 46% 30.09 in 10.0 mi South 3.5 mph - N/A   Clear
3:35 AM 42.8 °F 38.0 °F 28.4 °F 57% 30.09 in 10.0 mi WNW 8.1 mph - N/A   Clear
3:55 AM 42.8 °F 38.6 °F 26.6 °F 53% 30.08 in 10.0 mi WNW 6.9 mph - N/A   Clear
4:15 AM 42.8 °F 38.6 °F 26.6 °F 53% 30.08 in 10.0 mi WNW 6.9 mph - N/A   Clear
4:35 AM 41.0 °F 35.8 °F 26.6 °F 57% 30.07 in 10.0 mi West 8.1 mph - N/A   Clear
5:15 AM 41.0 °F 36.4 °F 26.6 °F 57% 30.07 in 10.0 mi West 6.9 mph - N/A   Clear
5:35 AM 41.0 °F 37.1 °F 26.6 °F 57% 30.08 in 10.0 mi NW 5.8 mph - N/A   Clear
6:15 AM 41.0 °F 34.7 °F 26.6 °F 57% 30.09 in 10.0 mi WNW 10.4 mph - N/A   Clear
6:35 AM 37.4 °F 30.8 °F 26.6 °F 65% 30.09 in 10.0 mi West 9.2 mph - N/A   Clear
6:55 AM 39.2 °F 33.0 °F 26.6 °F 61% 30.09 in 10.0 mi West 9.2 mph - N/A   Clear
7:35 AM 39.2 °F 32.5 °F 26.6 °F 61% 30.09 in 10.0 mi West 10.4 mph - N/A   Clear
7:55 AM 39.2 °F 33.0 °F 26.6 °F 61% 30.09 in 10.0 mi West 9.2 mph - N/A   Clear
8:35 AM 41.0 °F 35.8 °F 26.6 °F 57% 30.09 in 10.0 mi West 8.1 mph - N/A   Clear
8:55 AM 42.8 °F 38.6 °F 28.4 °F 57% 30.10 in 10.0 mi West 6.9 mph - N/A   Clear
9:15 AM 46.4 °F 42.4 °F 28.4 °F 50% 30.10 in 10.0 mi WNW 8.1 mph - N/A   Clear
9:35 AM 50.0 °F - 30.2 °F 47% 30.10 in 7.0 mi WNW 4.6 mph - N/A   Clear
9:55 AM 53.6 °F - 32.0 °F 44% 30.10 in 10.0 mi NW 3.5 mph - N/A   Clear
10:15 AM 59.0 °F - 30.2 °F 34% 30.10 in 10.0 mi WNW 3.5 mph - N/A   Clear
10:35 AM 60.8 °F - 32.0 °F 34% 30.10 in 10.0 mi West 3.5 mph - N/A   Clear
11:15 AM 64.4 °F - 30.2 °F 28% 30.10 in 10.0 mi SW 8.1 mph - N/A   Clear
11:35 AM 68.0 °F - 30.2 °F 24% 30.10 in 10.0 mi SSW 12.7 mph - N/A   Clear
11:55 AM 69.8 °F - 30.2 °F 23% 30.09 in 10.0 mi SW 13.8 mph - N/A   Clear
12:15 PM 71.6 °F - 30.2 °F 22% 30.08 in 10.0 mi SW 12.7 mph - N/A   Clear
12:35 PM 73.4 °F - 30.2 °F 20% 30.08 in 10.0 mi SW 12.7 mph - N/A   Clear
1:15 PM 73.4 °F - 30.2 °F 20% 30.06 in 10.0 mi SSW 10.4 mph - N/A   Clear
1:35 PM 75.2 °F - 30.2 °F 19% 30.05 in 10.0 mi SSW 12.7 mph - N/A   Clear
1:55 PM 77.0 °F - 30.2 °F 18% 30.03 in 10.0 mi SW 11.5 mph - N/A   Clear
2:15 PM 77.0 °F - 28.4 °F 17% 30.03 in 10.0 mi SW 11.5 mph 17.3 mph N/A   Clear
2:35 PM 77.0 °F - 28.4 °F 17% 30.01 in 10.0 mi SSW 12.7 mph 18.4 mph N/A   Clear
2:55 PM 78.8 °F - 28.4 °F 16% 30.01 in 10.0 mi SSW 11.5 mph 19.6 mph N/A   Clear
3:15 PM 78.8 °F - 30.2 °F 17% 30.00 in 10.0 mi SW 12.7 mph 18.4 mph N/A   Clear
3:35 PM 78.8 °F - 30.2 °F 17% 29.99 in 10.0 mi SSW 11.5 mph - N/A   Clear
3:55 PM 78.8 °F - 30.2 °F 17% 29.98 in 10.0 mi South 16.1 mph 19.6 mph N/A   Clear
4:15 PM 78.8 °F - 30.2 °F 17% 29.98 in 10.0 mi SSW 9.2 mph - N/A   Clear
4:35 PM 78.8 °F - 30.2 °F 17% 29.97 in 10.0 mi South 13.8 mph 17.3 mph N/A   Clear
4:55 PM 78.8 °F - 28.4 °F 16% 29.97 in 10.0 mi SSW 11.5 mph - N/A   Clear
5:15 PM 78.8 °F - 26.6 °F 15% 29.96 in 10.0 mi South 12.7 mph - N/A   Clear
5:35 PM 78.8 °F - 26.6 °F 15% 29.95 in 10.0 mi SSW 13.8 mph - N/A   Clear
5:55 PM 77.0 °F - 28.4 °F 17% 29.95 in 10.0 mi South 11.5 mph - N/A   Clear
6:15 PM 75.2 °F - 28.4 °F 18% 29.95 in 10.0 mi South 6.9 mph - N/A   Clear
6:35 PM 69.8 °F - 28.4 °F 21% 29.95 in 10.0 mi South 6.9 mph - N/A   Clear
6:55 PM 66.2 °F - 26.6 °F 23% 29.95 in 10.0 mi South 8.1 mph - N/A   Clear
7:15 PM 64.4 °F - 26.6 °F 24% 29.95 in 10.0 mi South 9.2 mph - N/A   Clear
7:35 PM 59.0 °F - 24.8 °F 27% 29.95 in 10.0 mi SSW 10.4 mph - N/A   Clear
7:55 PM 57.2 °F - 24.8 °F 29% 29.96 in 10.0 mi SSW 10.4 mph - N/A   Clear
8:15 PM 55.4 °F - 24.8 °F 31% 29.96 in 10.0 mi South 10.4 mph - N/A   Clear
8:35 PM 55.4 °F - 23.0 °F 29% 29.95 in 10.0 mi South 11.5 mph - N/A   Clear
8:55 PM 53.6 °F - 23.0 °F 30% 29.95 in 10.0 mi South 11.5 mph - N/A   Clear
9:15 PM 55.4 °F - 23.0 °F 29% 29.95 in 10.0 mi South 11.5 mph - N/A   Clear
9:35 PM 59.0 °F - 24.8 °F 27% 29.95 in 10.0 mi SSW 12.7 mph - N/A   Clear
9:55 PM 59.0 °F - 24.8 °F 27% 29.95 in 10.0 mi SSW 11.5 mph - N/A   Clear
10:15 PM 55.4 °F - 24.8 °F 31% 29.95 in 10.0 mi SSW 10.4 mph - N/A   Clear
10:35 PM 55.4 °F - 23.0 °F 29% 29.95 in 10.0 mi South 10.4 mph - N/A   Clear
10:55 PM 55.4 °F - 23.0 °F 29% 29.95 in 10.0 mi SSW 12.7 mph - N/A   Clear
11:15 PM 55.4 °F - 23.0 °F 29% 29.95 in 10.0 mi SSW 12.7 mph - N/A   Clear
11:35 PM 55.4 °F - 23.0 °F 29% 29.95 in 10.0 mi SSW 13.8 mph - N/A   Clear
11:55 PM 55.4 °F - 23.0 °F 29% 29.95 in 10.0 mi SSW 13.8 mph - N/A   Clear